sensor_id;sensor_type;location;lat;lon;timestamp;temperature;humidity
2625;DHT22;1322;53.256;10.386;2022-12-18T00:02:15;-3.50;99.90
2625;DHT22;1322;53.256;10.386;2022-12-18T00:04:41;-3.50;99.90
2625;DHT22;1322;53.256;10.386;2022-12-18T00:07:06;-3.50;99.90
2625;DHT22;1322;53.256;10.386;2022-12-18T00:09:32;-3.50;99.90
2625;DHT22;1322;53.256;10.386;2022-12-18T00:11:58;-3.40;99.90
2625;DHT22;1322;53.256;10.386;2022-12-18T00:14:23;-3.50;99.90
2625;DHT22;1322;53.256;10.386;2022-12-18T00:16:49;-3.50;99.90
2625;DHT22;1322;53.256;10.386;2022-12-18T00:19:15;-3.50;99.90
2625;DHT22;1322;53.256;10.386;2022-12-18T00:21:42;-3.70;99.90
2625;DHT22;1322;53.256;10.386;2022-12-18T00:24:08;-3.60;99.90
2625;DHT22;1322;53.256;10.386;2022-12-18T00:26:35;-3.90;99.90
2625;DHT22;1322;53.256;10.386;2022-12-18T00:29:08;-3.80;99.90
2625;DHT22;1322;53.256;10.386;2022-12-18T00:31:34;-3.80;99.90
2625;DHT22;1322;53.256;10.386;2022-12-18T00:34:00;-3.90;99.90
2625;DHT22;1322;53.256;10.386;2022-12-18T00:36:28;-3.90;99.90
2625;DHT22;1322;53.256;10.386;2022-12-18T00:38:56;-3.80;99.90
2625;DHT22;1322;53.256;10.386;2022-12-18T00:41:22;-3.00;99.90
2625;DHT22;1322;53.256;10.386;2022-12-18T00:44:09;-3.80;99.90
2625;DHT22;1322;53.256;10.386;2022-12-18T00:46:35;-3.90;99.90
2625;DHT22;1322;53.256;10.386;2022-12-18T00:49:01;-3.90;99.90
2625;DHT22;1322;53.256;10.386;2022-12-18T00:51:26;-3.70;99.90
2625;DHT22;1322;53.256;10.386;2022-12-18T00:53:52;-3.80;99.90
2625;DHT22;1322;53.256;10.386;2022-12-18T00:56:18;-3.80;99.90
2625;DHT22;1322;53.256;10.386;2022-12-18T00:58:44;-3.90;99.90
2625;DHT22;1322;53.256;10.386;2022-12-18T01:01:09;-3.00;99.90
2625;DHT22;1322;53.256;10.386;2022-12-18T01:03:35;-3.80;99.90
2625;DHT22;1322;53.256;10.386;2022-12-18T01:06:06;-3.90;99.90
2625;DHT22;1322;53.256;10.386;2022-12-18T01:08:32;-4.00;99.90
2625;DHT22;1322;53.256;10.386;2022-12-18T01:10:58;-4.00;99.90
2625;DHT22;1322;53.256;10.386;2022-12-18T01:13:23;-4.10;99.90
2625;DHT22;1322;53.256;10.386;2022-12-18T01:15:50;-4.00;99.90
2625;DHT22;1322;53.256;10.386;2022-12-18T01:18:15;-4.10;99.90
2625;DHT22;1322;53.256;10.386;2022-12-18T01:20:41;-4.20;99.90
2625;DHT22;1322;53.256;10.386;2022-12-18T01:23:07;-4.10;99.90
2625;DHT22;1322;53.256;10.386;2022-12-18T01:25:32;-4.10;99.90
2625;DHT22;1322;53.256;10.386;2022-12-18T01:27:58;-4.20;99.90
2625;DHT22;1322;53.256;10.386;2022-12-18T01:30:24;-4.10;99.90
2625;DHT22;1322;53.256;10.386;2022-12-18T01:32:49;-4.10;99.90
2625;DHT22;1322;53.256;10.386;2022-12-18T01:35:15;-4.00;99.90
2625;DHT22;1322;53.256;10.386;2022-12-18T01:37:41;-4.10;99.90
2625;DHT22;1322;53.256;10.386;2022-12-18T01:40:07;-4.00;99.90
2625;DHT22;1322;53.256;10.386;2022-12-18T01:42:33;-4.00;99.90
2625;DHT22;1322;53.256;10.386;2022-12-18T01:50:11;-4.30;99.90
2625;DHT22;1322;53.256;10.386;2022-12-18T01:52:38;-4.30;99.90
2625;DHT22;1322;53.256;10.386;2022-12-18T01:55:07;-4.10;99.90
2625;DHT22;1322;53.256;10.386;2022-12-18T01:57:34;-4.20;99.90
2625;DHT22;1322;53.256;10.386;2022-12-18T02:00:03;-4.20;99.90
2625;DHT22;1322;53.256;10.386;2022-12-18T02:02:32;-4.20;99.90
2625;DHT22;1322;53.256;10.386;2022-12-18T02:04:58;-4.20;99.90
2625;DHT22;1322;53.256;10.386;2022-12-18T02:15:40;-4.30;99.90
2625;DHT22;1322;53.256;10.386;2022-12-18T02:18:24;-4.30;99.90
2625;DHT22;1322;53.256;10.386;2022-12-18T02:21:01;-4.30;99.90
2625;DHT22;1322;53.256;10.386;2022-12-18T02:24:00;-4.20;99.90
2625;DHT22;1322;53.256;10.386;2022-12-18T02:26:58;-4.10;99.90
2625;DHT22;1322;53.256;10.386;2022-12-18T02:29:25;-4.10;99.90
2625;DHT22;1322;53.256;10.386;2022-12-18T02:31:57;-3.30;99.90
2625;DHT22;1322;53.256;10.386;2022-12-18T02:34:30;-4.20;99.90
2625;DHT22;1322;53.256;10.386;2022-12-18T02:36:58;-4.30;99.90
2625;DHT22;1322;53.256;10.386;2022-12-18T02:39:26;-4.20;99.90
2625;DHT22;1322;53.256;10.386;2022-12-18T02:41:53;-4.20;99.90
2625;DHT22;1322;53.256;10.386;2022-12-18T02:44:18;-4.30;99.90
2625;DHT22;1322;53.256;10.386;2022-12-18T02:46:52;-4.10;99.90
2625;DHT22;1322;53.256;10.386;2022-12-18T02:56:55;-4.40;99.90
2625;DHT22;1322;53.256;10.386;2022-12-18T02:59:31;-4.30;99.90
2625;DHT22;1322;53.256;10.386;2022-12-18T03:02:21;-4.20;99.90
2625;DHT22;1322;53.256;10.386;2022-12-18T03:10:15;-4.50;99.90
2625;DHT22;1322;53.256;10.386;2022-12-18T03:12:50;-4.40;99.90
2625;DHT22;1322;53.256;10.386;2022-12-18T03:21:04;-4.60;99.90
2625;DHT22;1322;53.256;10.386;2022-12-18T03:23:35;-4.70;99.90
2625;DHT22;1322;53.256;10.386;2022-12-18T03:26:16;-4.60;99.90
2625;DHT22;1322;53.256;10.386;2022-12-18T03:28:47;-4.70;99.90
2625;DHT22;1322;53.256;10.386;2022-12-18T03:31:15;-4.70;99.90
2625;DHT22;1322;53.256;10.386;2022-12-18T03:33:51;-4.50;99.90
2625;DHT22;1322;53.256;10.386;2022-12-18T03:36:18;-4.50;99.90
2625;DHT22;1322;53.256;10.386;2022-12-18T03:38:43;-4.60;99.90
2625;DHT22;1322;53.256;10.386;2022-12-18T03:47:22;-4.70;99.90
2625;DHT22;1322;53.256;10.386;2022-12-18T03:49:52;-4.80;99.90
2625;DHT22;1322;53.256;10.386;2022-12-18T03:52:40;-4.70;99.90
2625;DHT22;1322;53.256;10.386;2022-12-18T03:55:08;-4.70;99.90
2625;DHT22;1322;53.256;10.386;2022-12-18T03:57:35;-4.60;99.90
2625;DHT22;1322;53.256;10.386;2022-12-18T04:00:05;-4.50;99.90
2625;DHT22;1322;53.256;10.386;2022-12-18T04:02:34;-4.70;99.90
2625;DHT22;1322;53.256;10.386;2022-12-18T04:05:03;-4.90;99.90
2625;DHT22;1322;53.256;10.386;2022-12-18T04:07:30;-4.80;99.90
2625;DHT22;1322;53.256;10.386;2022-12-18T04:09:58;-4.70;99.90
2625;DHT22;1322;53.256;10.386;2022-12-18T04:12:28;-4.70;99.90
2625;DHT22;1322;53.256;10.386;2022-12-18T04:14:54;-4.70;99.90
2625;DHT22;1322;53.256;10.386;2022-12-18T04:17:20;-4.80;99.90
2625;DHT22;1322;53.256;10.386;2022-12-18T04:19:46;-4.90;99.90
2625;DHT22;1322;53.256;10.386;2022-12-18T04:22:11;-4.90;99.90
2625;DHT22;1322;53.256;10.386;2022-12-18T04:24:37;-5.00;99.90
2625;DHT22;1322;53.256;10.386;2022-12-18T04:27:03;-5.00;99.90
2625;DHT22;1322;53.256;10.386;2022-12-18T04:29:28;-5.10;99.90
2625;DHT22;1322;53.256;10.386;2022-12-18T04:31:54;-5.10;99.90
2625;DHT22;1322;53.256;10.386;2022-12-18T04:34:20;-5.10;99.90
2625;DHT22;1322;53.256;10.386;2022-12-18T04:36:46;-5.10;99.90
2625;DHT22;1322;53.256;10.386;2022-12-18T04:39:11;-5.00;99.90
2625;DHT22;1322;53.256;10.386;2022-12-18T04:41:37;-5.10;99.90
2625;DHT22;1322;53.256;10.386;2022-12-18T04:44:03;-5.10;99.90
2625;DHT22;1322;53.256;10.386;2022-12-18T04:46:28;-5.20;99.90
2625;DHT22;1322;53.256;10.386;2022-12-18T04:48:54;-5.00;99.90
2625;DHT22;1322;53.256;10.386;2022-12-18T04:51:20;-5.00;99.90
2625;DHT22;1322;53.256;10.386;2022-12-18T04:53:45;-5.00;99.90
2625;DHT22;1322;53.256;10.386;2022-12-18T04:56:13;-5.30;99.90
2625;DHT22;1322;53.256;10.386;2022-12-18T04:58:41;-5.30;99.90
2625;DHT22;1322;53.256;10.386;2022-12-18T05:01:08;-5.20;99.90
2625;DHT22;1322;53.256;10.386;2022-12-18T05:03:34;-5.30;99.90
2625;DHT22;1322;53.256;10.386;2022-12-18T05:06:00;-5.30;99.90
2625;DHT22;1322;53.256;10.386;2022-12-18T05:08:26;-5.10;99.90
2625;DHT22;1322;53.256;10.386;2022-12-18T05:11:18;-5.40;99.90
2625;DHT22;1322;53.256;10.386;2022-12-18T05:13:45;-5.30;99.90
2625;DHT22;1322;53.256;10.386;2022-12-18T05:16:11;-5.30;99.90
2625;DHT22;1322;53.256;10.386;2022-12-18T05:18:37;-5.20;99.90
2625;DHT22;1322;53.256;10.386;2022-12-18T05:21:03;-4.40;99.90
2625;DHT22;1322;53.256;10.386;2022-12-18T05:23:29;-5.20;99.90
2625;DHT22;1322;53.256;10.386;2022-12-18T05:25:57;-5.10;99.90
2625;DHT22;1322;53.256;10.386;2022-12-18T05:28:24;-5.10;99.90
2625;DHT22;1322;53.256;10.386;2022-12-18T05:30:52;-5.10;99.90
2625;DHT22;1322;53.256;10.386;2022-12-18T05:33:19;-5.10;99.90
2625;DHT22;1322;53.256;10.386;2022-12-18T05:35:50;-5.20;99.90
2625;DHT22;1322;53.256;10.386;2022-12-18T05:38:16;-5.20;99.90
2625;DHT22;1322;53.256;10.386;2022-12-18T05:40:42;-5.20;99.90
2625;DHT22;1322;53.256;10.386;2022-12-18T05:43:09;-5.20;99.90
2625;DHT22;1322;53.256;10.386;2022-12-18T05:45:40;-5.20;99.90
2625;DHT22;1322;53.256;10.386;2022-12-18T05:48:06;-5.20;99.90
2625;DHT22;1322;53.256;10.386;2022-12-18T05:50:39;-5.20;99.90
2625;DHT22;1322;53.256;10.386;2022-12-18T05:53:06;-5.20;99.90
2625;DHT22;1322;53.256;10.386;2022-12-18T05:55:36;-5.10;99.90
2625;DHT22;1322;53.256;10.386;2022-12-18T05:58:03;-5.20;99.90
2625;DHT22;1322;53.256;10.386;2022-12-18T06:00:29;-5.40;99.90
2625;DHT22;1322;53.256;10.386;2022-12-18T06:02:54;-5.40;99.90
2625;DHT22;1322;53.256;10.386;2022-12-18T06:05:20;-5.60;99.90
2625;DHT22;1322;53.256;10.386;2022-12-18T06:07:45;-5.70;99.90
2625;DHT22;1322;53.256;10.386;2022-12-18T06:10:11;-5.70;99.90
2625;DHT22;1322;53.256;10.386;2022-12-18T06:12:37;-5.70;99.90
2625;DHT22;1322;53.256;10.386;2022-12-18T06:15:03;-5.60;99.90
2625;DHT22;1322;53.256;10.386;2022-12-18T06:17:30;-5.70;99.90
2625;DHT22;1322;53.256;10.386;2022-12-18T06:19:55;-5.70;99.90
2625;DHT22;1322;53.256;10.386;2022-12-18T06:22:21;-5.70;99.90
2625;DHT22;1322;53.256;10.386;2022-12-18T06:24:47;-5.70;99.90
2625;DHT22;1322;53.256;10.386;2022-12-18T06:27:13;-5.80;99.90
2625;DHT22;1322;53.256;10.386;2022-12-18T06:29:38;-5.70;99.90
2625;DHT22;1322;53.256;10.386;2022-12-18T06:32:04;-5.70;99.90
2625;DHT22;1322;53.256;10.386;2022-12-18T06:34:32;-5.60;99.90
2625;DHT22;1322;53.256;10.386;2022-12-18T06:36:57;-5.50;99.90
2625;DHT22;1322;53.256;10.386;2022-12-18T06:39:23;-5.40;99.90
2625;DHT22;1322;53.256;10.386;2022-12-18T06:41:49;-5.40;99.90
2625;DHT22;1322;53.256;10.386;2022-12-18T06:44:14;-5.40;99.90
2625;DHT22;1322;53.256;10.386;2022-12-18T06:46:40;-5.50;99.90
2625;DHT22;1322;53.256;10.386;2022-12-18T06:49:05;-5.60;99.90
2625;DHT22;1322;53.256;10.386;2022-12-18T06:51:32;-5.60;99.90
2625;DHT22;1322;53.256;10.386;2022-12-18T06:53:57;-5.50;99.90
2625;DHT22;1322;53.256;10.386;2022-12-18T06:56:23;-5.50;99.90
2625;DHT22;1322;53.256;10.386;2022-12-18T06:58:50;-5.50;99.90
2625;DHT22;1322;53.256;10.386;2022-12-18T07:01:15;-5.60;99.90
2625;DHT22;1322;53.256;10.386;2022-12-18T07:03:41;-5.50;99.90
2625;DHT22;1322;53.256;10.386;2022-12-18T07:06:14;-5.60;99.90
2625;DHT22;1322;53.256;10.386;2022-12-18T07:08:40;-5.50;99.90
2625;DHT22;1322;53.256;10.386;2022-12-18T07:11:05;-5.60;99.90
2625;DHT22;1322;53.256;10.386;2022-12-18T07:13:31;-5.60;99.90
2625;DHT22;1322;53.256;10.386;2022-12-18T07:16:04;-5.60;99.90
2625;DHT22;1322;53.256;10.386;2022-12-18T07:18:30;-5.80;99.90
2625;DHT22;1322;53.256;10.386;2022-12-18T07:20:55;-5.80;99.90
2625;DHT22;1322;53.256;10.386;2022-12-18T07:23:21;-5.90;99.90
2625;DHT22;1322;53.256;10.386;2022-12-18T07:25:46;-5.90;99.90
2625;DHT22;1322;53.256;10.386;2022-12-18T07:28:12;-5.80;99.90
2625;DHT22;1322;53.256;10.386;2022-12-18T07:30:38;-5.70;99.90
2625;DHT22;1322;53.256;10.386;2022-12-18T07:33:04;-5.70;99.90
2625;DHT22;1322;53.256;10.386;2022-12-18T07:35:29;-5.40;99.90
2625;DHT22;1322;53.256;10.386;2022-12-18T07:37:55;-5.60;99.90
2625;DHT22;1322;53.256;10.386;2022-12-18T07:40:20;-5.70;99.90
2625;DHT22;1322;53.256;10.386;2022-12-18T07:42:46;-5.50;99.90
2625;DHT22;1322;53.256;10.386;2022-12-18T07:45:12;-5.60;99.90
2625;DHT22;1322;53.256;10.386;2022-12-18T07:47:37;-5.60;99.90
2625;DHT22;1322;53.256;10.386;2022-12-18T07:50:04;-5.60;99.90
2625;DHT22;1322;53.256;10.386;2022-12-18T07:52:30;-5.50;99.90
2625;DHT22;1322;53.256;10.386;2022-12-18T07:54:55;-5.50;99.90
2625;DHT22;1322;53.256;10.386;2022-12-18T07:57:21;-5.50;99.90
2625;DHT22;1322;53.256;10.386;2022-12-18T07:59:46;-5.50;99.90
2625;DHT22;1322;53.256;10.386;2022-12-18T08:02:12;-5.50;99.90
2625;DHT22;1322;53.256;10.386;2022-12-18T08:04:38;-5.50;99.90
2625;DHT22;1322;53.256;10.386;2022-12-18T08:07:03;-5.40;99.90
2625;DHT22;1322;53.256;10.386;2022-12-18T08:09:30;-5.70;99.90
2625;DHT22;1322;53.256;10.386;2022-12-18T08:11:55;-5.50;99.90
2625;DHT22;1322;53.256;10.386;2022-12-18T08:14:21;-5.60;99.90
2625;DHT22;1322;53.256;10.386;2022-12-18T08:16:46;-5.50;99.90
2625;DHT22;1322;53.256;10.386;2022-12-18T08:19:12;-5.40;99.90
2625;DHT22;1322;53.256;10.386;2022-12-18T08:21:40;-5.40;99.90
2625;DHT22;1322;53.256;10.386;2022-12-18T08:24:06;-5.60;99.90
2625;DHT22;1322;53.256;10.386;2022-12-18T08:26:34;-5.40;99.90
2625;DHT22;1322;53.256;10.386;2022-12-18T08:29:01;-5.50;99.90
2625;DHT22;1322;53.256;10.386;2022-12-18T08:31:28;-5.30;99.90
2625;DHT22;1322;53.256;10.386;2022-12-18T08:33:54;-5.40;99.90
2625;DHT22;1322;53.256;10.386;2022-12-18T08:36:21;-5.20;99.90
2625;DHT22;1322;53.256;10.386;2022-12-18T08:38:47;-5.30;99.90
2625;DHT22;1322;53.256;10.386;2022-12-18T08:41:14;-5.10;99.90
2625;DHT22;1322;53.256;10.386;2022-12-18T08:43:40;-5.10;99.90
2625;DHT22;1322;53.256;10.386;2022-12-18T08:46:26;-4.20;99.90
2625;DHT22;1322;53.256;10.386;2022-12-18T08:48:53;-5.00;99.90
2625;DHT22;1322;53.256;10.386;2022-12-18T08:51:21;-5.00;99.90
2625;DHT22;1322;53.256;10.386;2022-12-18T08:53:47;-4.70;99.90
2625;DHT22;1322;53.256;10.386;2022-12-18T08:56:13;-4.90;99.90
2625;DHT22;1322;53.256;10.386;2022-12-18T08:58:40;-5.00;99.90
2625;DHT22;1322;53.256;10.386;2022-12-18T09:01:08;-5.00;99.90
2625;DHT22;1322;53.256;10.386;2022-12-18T09:03:35;-5.00;99.90
2625;DHT22;1322;53.256;10.386;2022-12-18T09:06:00;-4.90;99.90
2625;DHT22;1322;53.256;10.386;2022-12-18T09:08:26;-4.80;99.90
2625;DHT22;1322;53.256;10.386;2022-12-18T09:10:52;-4.70;99.90
2625;DHT22;1322;53.256;10.386;2022-12-18T09:13:18;-4.60;99.90
2625;DHT22;1322;53.256;10.386;2022-12-18T09:15:52;-4.40;99.90
2625;DHT22;1322;53.256;10.386;2022-12-18T09:18:19;-4.40;99.90
2625;DHT22;1322;53.256;10.386;2022-12-18T09:20:46;-4.40;99.90
2625;DHT22;1322;53.256;10.386;2022-12-18T09:23:12;-4.30;99.90
2625;DHT22;1322;53.256;10.386;2022-12-18T09:25:38;-4.20;99.90
2625;DHT22;1322;53.256;10.386;2022-12-18T09:28:12;-4.30;99.90
2625;DHT22;1322;53.256;10.386;2022-12-18T09:30:39;-4.40;99.90
2625;DHT22;1322;53.256;10.386;2022-12-18T09:33:05;-4.30;99.90
2625;DHT22;1322;53.256;10.386;2022-12-18T09:35:31;-4.30;99.90
2625;DHT22;1322;53.256;10.386;2022-12-18T09:37:56;-4.30;99.90
2625;DHT22;1322;53.256;10.386;2022-12-18T09:40:25;-4.20;99.90
2625;DHT22;1322;53.256;10.386;2022-12-18T09:42:57;-4.10;99.90
2625;DHT22;1322;53.256;10.386;2022-12-18T09:45:24;-4.10;99.90
2625;DHT22;1322;53.256;10.386;2022-12-18T09:47:51;-4.10;99.90
2625;DHT22;1322;53.256;10.386;2022-12-18T09:50:26;-4.70;99.90
2625;DHT22;1322;53.256;10.386;2022-12-18T09:52:56;-3.90;99.90
2625;DHT22;1322;53.256;10.386;2022-12-18T09:55:42;-4.10;99.90
2625;DHT22;1322;53.256;10.386;2022-12-18T09:58:33;-3.90;99.90
2625;DHT22;1322;53.256;10.386;2022-12-18T10:01:01;-3.70;99.90
2625;DHT22;1322;53.256;10.386;2022-12-18T10:03:27;-3.80;99.90
2625;DHT22;1322;53.256;10.386;2022-12-18T10:11:53;-3.80;99.90
2625;DHT22;1322;53.256;10.386;2022-12-18T10:19:35;-3.50;99.90
2625;DHT22;1322;53.256;10.386;2022-12-18T10:22:15;-3.70;99.90
2625;DHT22;1322;53.256;10.386;2022-12-18T10:24:54;-3.50;99.90
2625;DHT22;1322;53.256;10.386;2022-12-18T10:27:25;-3.40;99.90
2625;DHT22;1322;53.256;10.386;2022-12-18T10:29:51;-3.20;99.90
2625;DHT22;1322;53.256;10.386;2022-12-18T10:32:18;-3.00;99.90
2625;DHT22;1322;53.256;10.386;2022-12-18T10:34:49;-3.00;99.90
2625;DHT22;1322;53.256;10.386;2022-12-18T10:37:22;-3.10;99.90
2625;DHT22;1322;53.256;10.386;2022-12-18T10:40:13;-3.00;99.90
2625;DHT22;1322;53.256;10.386;2022-12-18T10:42:39;-3.00;99.90
2625;DHT22;1322;53.256;10.386;2022-12-18T10:45:16;-3.00;99.90
2625;DHT22;1322;53.256;10.386;2022-12-18T10:47:52;-2.90;99.90
2625;DHT22;1322;53.256;10.386;2022-12-18T10:50:21;-2.80;99.90
2625;DHT22;1322;53.256;10.386;2022-12-18T10:53:00;-2.80;99.90
2625;DHT22;1322;53.256;10.386;2022-12-18T10:55:34;-2.70;99.90
2625;DHT22;1322;53.256;10.386;2022-12-18T11:00:39;-2.80;99.90
2625;DHT22;1322;53.256;10.386;2022-12-18T11:03:31;-2.90;99.90
2625;DHT22;1322;53.256;10.386;2022-12-18T11:06:03;-2.70;99.90
2625;DHT22;1322;53.256;10.386;2022-12-18T11:08:28;-2.50;99.90
2625;DHT22;1322;53.256;10.386;2022-12-18T11:10:54;-2.50;99.90
2625;DHT22;1322;53.256;10.386;2022-12-18T11:13:22;-2.90;99.90
2625;DHT22;1322;53.256;10.386;2022-12-18T11:15:48;-2.60;99.90
2625;DHT22;1322;53.256;10.386;2022-12-18T11:18:27;-2.40;99.90
2625;DHT22;1322;53.256;10.386;2022-12-18T11:20:59;-2.50;99.90
2625;DHT22;1322;53.256;10.386;2022-12-18T11:23:26;-2.40;99.90
2625;DHT22;1322;53.256;10.386;2022-12-18T11:26:01;-1.70;99.90
2625;DHT22;1322;53.256;10.386;2022-12-18T11:28:40;-1.80;99.90
2625;DHT22;1322;53.256;10.386;2022-12-18T11:31:26;-2.40;99.90
2625;DHT22;1322;53.256;10.386;2022-12-18T11:36:36;-2.40;99.90
2625;DHT22;1322;53.256;10.386;2022-12-18T11:39:09;-2.30;99.90
2625;DHT22;1322;53.256;10.386;2022-12-18T11:41:50;-2.10;99.90
2625;DHT22;1322;53.256;10.386;2022-12-18T11:44:51;-2.10;99.90
2625;DHT22;1322;53.256;10.386;2022-12-18T11:47:28;-2.30;99.90
2625;DHT22;1322;53.256;10.386;2022-12-18T11:50:00;-2.30;99.90
2625;DHT22;1322;53.256;10.386;2022-12-18T11:52:46;-2.00;99.90
2625;DHT22;1322;53.256;10.386;2022-12-18T11:55:43;-2.00;99.90
2625;DHT22;1322;53.256;10.386;2022-12-18T12:17:40;-1.70;99.90
2625;DHT22;1322;53.256;10.386;2022-12-18T12:20:16;-1.60;99.90
2625;DHT22;1322;53.256;10.386;2022-12-18T12:31:20;-1.80;99.90
2625;DHT22;1322;53.256;10.386;2022-12-18T12:34:01;-1.70;99.90
2625;DHT22;1322;53.256;10.386;2022-12-18T12:39:18;-1.60;99.90
2625;DHT22;1322;53.256;10.386;2022-12-18T12:41:45;-1.60;99.90
2625;DHT22;1322;53.256;10.386;2022-12-18T12:44:44;-1.70;99.90
2625;DHT22;1322;53.256;10.386;2022-12-18T12:47:16;-0.90;99.90
2625;DHT22;1322;53.256;10.386;2022-12-18T12:49:43;-1.50;99.90
2625;DHT22;1322;53.256;10.386;2022-12-18T12:52:16;-1.50;99.90
2625;DHT22;1322;53.256;10.386;2022-12-18T12:54:43;-1.50;99.90
2625;DHT22;1322;53.256;10.386;2022-12-18T12:57:45;-1.50;99.90
2625;DHT22;1322;53.256;10.386;2022-12-18T13:00:12;-1.60;99.90
2625;DHT22;1322;53.256;10.386;2022-12-18T13:08:09;-1.40;99.90
2625;DHT22;1322;53.256;10.386;2022-12-18T13:10:37;-1.30;99.90
2625;DHT22;1322;53.256;10.386;2022-12-18T13:13:10;-1.00;99.90
2625;DHT22;1322;53.256;10.386;2022-12-18T13:16:03;-1.50;99.90
2625;DHT22;1322;53.256;10.386;2022-12-18T13:18:30;-1.40;99.90
2625;DHT22;1322;53.256;10.386;2022-12-18T13:23:31;-1.40;99.90
2625;DHT22;1322;53.256;10.386;2022-12-18T13:34:30;-1.50;99.90
2625;DHT22;1322;53.256;10.386;2022-12-18T13:37:39;-0.70;99.90
2625;DHT22;1322;53.256;10.386;2022-12-18T13:40:53;-1.50;99.90
2625;DHT22;1322;53.256;10.386;2022-12-18T13:46:03;-0.70;99.90
2625;DHT22;1322;53.256;10.386;2022-12-18T13:48:32;-1.50;99.90
2625;DHT22;1322;53.256;10.386;2022-12-18T13:51:06;-1.60;99.90
2625;DHT22;1322;53.256;10.386;2022-12-18T13:53:42;-1.90;99.90
2625;DHT22;1322;53.256;10.386;2022-12-18T13:56:09;-2.00;99.90
2625;DHT22;1322;53.256;10.386;2022-12-18T13:58:40;-1.90;99.90
2625;DHT22;1322;53.256;10.386;2022-12-18T14:01:25;-1.90;99.90
2625;DHT22;1322;53.256;10.386;2022-12-18T14:04:08;-2.00;99.90
2625;DHT22;1322;53.256;10.386;2022-12-18T14:06:34;-1.90;99.90
2625;DHT22;1322;53.256;10.386;2022-12-18T14:09:00;-2.00;99.90
2625;DHT22;1322;53.256;10.386;2022-12-18T14:11:27;-1.80;99.90
2625;DHT22;1322;53.256;10.386;2022-12-18T14:13:53;-2.00;99.90
2625;DHT22;1322;53.256;10.386;2022-12-18T14:16:18;-2.10;99.90
2625;DHT22;1322;53.256;10.386;2022-12-18T14:18:56;-2.00;99.90
2625;DHT22;1322;53.256;10.386;2022-12-18T14:23:49;-2.30;99.90
2625;DHT22;1322;53.256;10.386;2022-12-18T14:26:30;-2.00;99.90
2625;DHT22;1322;53.256;10.386;2022-12-18T14:29:10;-2.10;99.90
2625;DHT22;1322;53.256;10.386;2022-12-18T14:31:42;-2.10;99.90
2625;DHT22;1322;53.256;10.386;2022-12-18T14:34:16;-2.00;99.90
2625;DHT22;1322;53.256;10.386;2022-12-18T14:36:52;-2.20;99.90
2625;DHT22;1322;53.256;10.386;2022-12-18T14:39:18;-2.20;99.90
2625;DHT22;1322;53.256;10.386;2022-12-18T14:41:44;-2.30;99.90
2625;DHT22;1322;53.256;10.386;2022-12-18T14:44:12;-2.30;99.90
2625;DHT22;1322;53.256;10.386;2022-12-18T14:46:38;-2.30;99.90
2625;DHT22;1322;53.256;10.386;2022-12-18T14:49:32;-2.30;99.90
2625;DHT22;1322;53.256;10.386;2022-12-18T14:52:01;-2.30;99.90
2625;DHT22;1322;53.256;10.386;2022-12-18T14:54:28;-2.10;99.90
2625;DHT22;1322;53.256;10.386;2022-12-18T14:57:02;-2.30;99.90
2625;DHT22;1322;53.256;10.386;2022-12-18T14:59:29;-2.20;99.90
2625;DHT22;1322;53.256;10.386;2022-12-18T15:04:35;-2.10;99.90
2625;DHT22;1322;53.256;10.386;2022-12-18T15:09:29;-2.10;99.90
2625;DHT22;1322;53.256;10.386;2022-12-18T15:12:00;-2.20;99.90
2625;DHT22;1322;53.256;10.386;2022-12-18T15:14:39;-1.70;99.90
2625;DHT22;1322;53.256;10.386;2022-12-18T15:17:18;-2.00;99.90
2625;DHT22;1322;53.256;10.386;2022-12-18T15:19:46;-1.90;99.90
2625;DHT22;1322;53.256;10.386;2022-12-18T15:22:30;-2.30;99.90
2625;DHT22;1322;53.256;10.386;2022-12-18T15:24:59;-2.40;99.90
2625;DHT22;1322;53.256;10.386;2022-12-18T15:27:33;-2.50;99.90
2625;DHT22;1322;53.256;10.386;2022-12-18T15:30:24;-2.60;99.90
2625;DHT22;1322;53.256;10.386;2022-12-18T15:32:51;-2.50;99.90
2625;DHT22;1322;53.256;10.386;2022-12-18T15:35:22;-2.90;99.90
2625;DHT22;1322;53.256;10.386;2022-12-18T15:37:50;-2.70;99.90
2625;DHT22;1322;53.256;10.386;2022-12-18T15:40:21;-2.50;99.90
2625;DHT22;1322;53.256;10.386;2022-12-18T15:42:48;-2.40;99.90
2625;DHT22;1322;53.256;10.386;2022-12-18T15:45:32;-2.40;99.90
2625;DHT22;1322;53.256;10.386;2022-12-18T15:47:58;-2.50;99.90
2625;DHT22;1322;53.256;10.386;2022-12-18T15:50:24;-2.60;99.90
2625;DHT22;1322;53.256;10.386;2022-12-18T15:52:52;-2.50;99.90
2625;DHT22;1322;53.256;10.386;2022-12-18T15:55:20;-2.50;99.90
2625;DHT22;1322;53.256;10.386;2022-12-18T15:58:06;-2.60;99.90
2625;DHT22;1322;53.256;10.386;2022-12-18T16:00:35;-2.60;99.90
2625;DHT22;1322;53.256;10.386;2022-12-18T16:03:02;-2.50;99.90
2625;DHT22;1322;53.256;10.386;2022-12-18T16:05:28;-2.50;99.90
2625;DHT22;1322;53.256;10.386;2022-12-18T16:07:54;-2.40;99.90
2625;DHT22;1322;53.256;10.386;2022-12-18T16:10:20;-2.30;99.90
2625;DHT22;1322;53.256;10.386;2022-12-18T16:12:46;-2.20;99.90
2625;DHT22;1322;53.256;10.386;2022-12-18T16:15:15;-2.30;99.90
2625;DHT22;1322;53.256;10.386;2022-12-18T16:17:42;-2.20;99.90
2625;DHT22;1322;53.256;10.386;2022-12-18T16:20:19;-1.30;99.90
2625;DHT22;1322;53.256;10.386;2022-12-18T16:22:46;-2.30;99.90
2625;DHT22;1322;53.256;10.386;2022-12-18T16:25:21;-2.40;99.90
2625;DHT22;1322;53.256;10.386;2022-12-18T16:27:48;-2.40;99.90
2625;DHT22;1322;53.256;10.386;2022-12-18T16:30:20;-2.30;99.90
2625;DHT22;1322;53.256;10.386;2022-12-18T16:32:46;-2.30;99.90
2625;DHT22;1322;53.256;10.386;2022-12-18T16:35:13;-2.30;99.90
2625;DHT22;1322;53.256;10.386;2022-12-18T16:37:40;-2.20;99.90
2625;DHT22;1322;53.256;10.386;2022-12-18T16:40:08;-2.00;99.90
2625;DHT22;1322;53.256;10.386;2022-12-18T16:42:36;-2.40;99.90
2625;DHT22;1322;53.256;10.386;2022-12-18T16:45:02;-2.40;99.90
2625;DHT22;1322;53.256;10.386;2022-12-18T16:47:28;-2.30;99.90
2625;DHT22;1322;53.256;10.386;2022-12-18T16:49:53;-2.10;99.90
2625;DHT22;1322;53.256;10.386;2022-12-18T16:52:19;-2.20;99.90
2625;DHT22;1322;53.256;10.386;2022-12-18T16:54:45;-2.10;99.90
2625;DHT22;1322;53.256;10.386;2022-12-18T16:57:13;-2.10;99.90
2625;DHT22;1322;53.256;10.386;2022-12-18T16:59:39;-2.20;99.90
2625;DHT22;1322;53.256;10.386;2022-12-18T17:02:05;-2.20;99.90
2625;DHT22;1322;53.256;10.386;2022-12-18T17:04:31;-2.20;99.90
2625;DHT22;1322;53.256;10.386;2022-12-18T17:06:58;-2.20;99.90
2625;DHT22;1322;53.256;10.386;2022-12-18T17:09:23;-2.20;99.90
2625;DHT22;1322;53.256;10.386;2022-12-18T17:11:52;-2.20;99.90
2625;DHT22;1322;53.256;10.386;2022-12-18T17:14:21;-2.20;99.90
2625;DHT22;1322;53.256;10.386;2022-12-18T17:16:47;-2.20;99.90
2625;DHT22;1322;53.256;10.386;2022-12-18T17:19:14;-2.10;99.90
2625;DHT22;1322;53.256;10.386;2022-12-18T17:21:42;-2.10;99.90
2625;DHT22;1322;53.256;10.386;2022-12-18T17:24:08;-2.10;99.90
2625;DHT22;1322;53.256;10.386;2022-12-18T17:26:34;-2.00;99.90
2625;DHT22;1322;53.256;10.386;2022-12-18T17:28:59;-2.00;99.90
2625;DHT22;1322;53.256;10.386;2022-12-18T17:31:26;-1.80;99.90
2625;DHT22;1322;53.256;10.386;2022-12-18T17:33:53;-2.00;99.90
2625;DHT22;1322;53.256;10.386;2022-12-18T17:36:19;-2.10;99.90
2625;DHT22;1322;53.256;10.386;2022-12-18T17:38:56;-2.00;99.90
2625;DHT22;1322;53.256;10.386;2022-12-18T17:41:22;-2.10;99.90
2625;DHT22;1322;53.256;10.386;2022-12-18T17:44:04;-2.00;99.90
2625;DHT22;1322;53.256;10.386;2022-12-18T17:46:31;-2.00;99.90
2625;DHT22;1322;53.256;10.386;2022-12-18T17:48:59;-2.00;99.90
2625;DHT22;1322;53.256;10.386;2022-12-18T17:51:25;-2.10;99.90
2625;DHT22;1322;53.256;10.386;2022-12-18T17:53:51;-2.00;99.90